Time;durP1;ratioP1;P1;durP2;ratioP2;P2;SDS_P1;SDS_P2;PMS_P1;PMS_P2;Temp;Humidity;BMP_temperature;BMP_pressure;BME280_temperature;BME280_humidity;BME280_pressure;Samples;Min_cycle;Max_cycle;Signal;HPM_P1;HPM_P2
2021/04/03 00:00:47;;;;;;;8.35;4.65;;;;;;;;;;5025902;28;20722;-83
2021/04/03 00:03:33;;;;;;;10.88;5.38;;;;;;;;;;5025028;28;20069;-83
2021/04/03 00:06:18;;;;;;;12.93;5.15;;;;;;;;;;5025881;28;20022;-83
2021/04/03 00:09:04;;;;;;;11.32;5.97;;;;;;;;;;5024146;28;20021;-84
2021/04/03 00:11:49;;;;;;;16.48;5.75;;;;;;;;;;5027761;28;20021;-83
2021/04/03 00:14:34;;;;;;;13.90;5.70;;;;;;;;;;5024214;28;20080;-84
2021/04/03 00:17:20;;;;;;;10.40;5.65;;;;;;;;;;5022118;28;20022;-84
2021/04/03 00:20:09;;;;;;;13.15;6.40;;;;;;;;;;5010868;28;20090;-84
2021/04/03 00:22:54;;;;;;;13.73;6.57;;;;;;;;;;5027429;28;20134;-83
2021/04/03 00:25:39;;;;;;;10.05;5.80;;;;;;;;;;5016051;28;20033;-83
2021/04/03 00:28:25;;;;;;;10.07;5.07;;;;;;;;;;5022354;28;20021;-84
2021/04/03 00:31:10;;;;;;;12.38;5.53;;;;;;;;;;5027814;28;20439;-84
2021/04/03 00:33:56;;;;;;;10.52;5.90;;;;;;;;;;5022798;28;20223;-83
2021/04/03 00:36:41;;;;;;;10.65;5.15;;;;;;;;;;5020863;28;20022;-83
2021/04/03 00:39:26;;;;;;;13.90;6.30;;;;;;;;;;5023974;28;20021;-83
2021/04/03 00:42:18;;;;;;;11.70;6.10;;;;;;;;;;5025215;28;20048;-83
2021/04/03 00:45:03;;;;;;;11.00;6.05;;;;;;;;;;5022246;28;20059;-83
2021/04/03 00:47:49;;;;;;;10.93;5.57;;;;;;;;;;5027188;28;20400;-83
2021/04/03 00:50:38;;;;;;;13.27;6.45;;;;;;;;;;5023773;28;20750;-82
2021/04/03 00:53:24;;;;;;;18.67;6.32;;;;;;;;;;5027760;28;20029;-82
2021/04/03 00:56:10;;;;;;;9.02;5.93;;;;;;;;;;5023637;28;20037;-83
2021/04/03 00:58:55;;;;;;;9.02;5.40;;;;;;;;;;5026315;28;20631;-82
2021/04/03 01:01:40;;;;;;;10.57;5.45;;;;;;;;;;5023768;28;20320;-84
2021/04/03 01:04:26;;;;;;;12.10;6.10;;;;;;;;;;5025515;28;20121;-83
2021/04/03 01:07:11;;;;;;;11.18;5.18;;;;;;;;;;5020126;28;20025;-83
2021/04/03 01:09:56;;;;;;;14.70;6.03;;;;;;;;;;5027125;28;20511;-83
2021/04/03 01:12:46;;;;;;;13.88;6.03;;;;;;;;;;5024958;28;20034;-84
2021/04/03 01:15:43;;;;;;;10.23;4.97;;;;;;;;;;5034564;28;20512;-83
2021/04/03 01:18:37;;;;;;;18.42;6.35;;;;;;;;;;5024538;28;20025;-83
2021/04/03 01:21:35;;;;;;;9.90;5.30;;;;;;;;;;5023886;28;20028;-83
2021/04/03 01:24:30;;;;;;;8.10;5.07;;;;;;;;;;5023858;28;20506;-83
2021/04/03 01:27:25;;;;;;;10.35;5.90;;;;;;;;;;5018837;28;20061;-83
2021/04/03 01:30:15;;;;;;;12.27;5.72;;;;;;;;;;5025818;28;20515;-83
2021/04/03 01:33:08;;;;;;;13.27;6.05;;;;;;;;;;5021116;28;20037;-84
2021/04/03 01:36:13;;;;;;;11.43;6.18;;;;;;;;;;5020430;28;20037;-84
2021/04/03 01:39:10;;;;;;;13.45;5.53;;;;;;;;;;5025265;28;20152;-82
2021/04/03 01:41:58;;;;;;;12.77;5.30;;;;;;;;;;5020313;28;20018;-83
2021/04/03 01:44:54;;;;;;;10.80;5.22;;;;;;;;;;5025098;28;20407;-82
2021/04/03 01:47:40;;;;;;;10.23;5.63;;;;;;;;;;5007803;28;20024;-82
2021/04/03 01:50:26;;;;;;;8.32;5.13;;;;;;;;;;5038232;28;20498;-83
2021/04/03 01:53:12;;;;;;;14.98;5.85;;;;;;;;;;5022659;28;20501;-82
2021/04/03 01:55:57;;;;;;;11.48;5.65;;;;;;;;;;5020605;28;20546;-82
2021/04/03 01:58:44;;;;;;;12.50;5.43;;;;;;;;;;5019325;28;20491;-83
2021/04/03 02:01:30;;;;;;;18.38;6.05;;;;;;;;;;5025010;28;20043;-82
2021/04/03 02:04:16;;;;;;;12.68;5.80;;;;;;;;;;5022488;28;20025;-84
2021/04/03 02:07:01;;;;;;;11.55;5.43;;;;;;;;;;5025037;28;20059;-84
2021/04/03 02:09:48;;;;;;;11.98;5.88;;;;;;;;;;5022452;28;20021;-82
2021/04/03 02:12:34;;;;;;;11.07;6.57;;;;;;;;;;5021369;28;20036;-83
2021/04/03 02:15:21;;;;;;;13.35;5.82;;;;;;;;;;5023015;28;20048;-82
2021/04/03 02:18:07;;;;;;;12.70;6.95;;;;;;;;;;5019997;28;22098;-84
2021/04/03 02:20:52;;;;;;;13.82;5.88;;;;;;;;;;5022256;28;20075;-83
2021/04/03 02:23:38;;;;;;;14.35;6.85;;;;;;;;;;5017374;28;20033;-84
2021/04/03 02:26:23;;;;;;;12.80;6.97;;;;;;;;;;5024911;28;20709;-84
2021/04/03 02:29:08;;;;;;;11.98;6.63;;;;;;;;;;5022582;28;20083;-84
2021/04/03 02:31:53;;;;;;;15.38;6.68;;;;;;;;;;5024396;28;20021;-84
2021/04/03 02:34:39;;;;;;;14.07;6.32;;;;;;;;;;5022852;28;20032;-82
2021/04/03 02:37:24;;;;;;;13.80;6.15;;;;;;;;;;5023825;28;20491;-85
2021/04/03 02:40:10;;;;;;;12.77;6.10;;;;;;;;;;5002157;28;20017;-83
2021/04/03 02:43:02;;;;;;;12.88;6.57;;;;;;;;;;5022832;28;20476;-84
2021/04/03 02:46:05;;;;;;;12.35;6.25;;;;;;;;;;5020905;28;20029;-83
2021/04/03 02:48:53;;;;;;;11.68;6.30;;;;;;;;;;5029238;28;20025;-82
2021/04/03 02:51:41;;;;;;;10.60;5.65;;;;;;;;;;5022922;28;20021;-82
2021/04/03 02:54:27;;;;;;;13.32;5.80;;;;;;;;;;5021588;28;20025;-83
2021/04/03 02:57:13;;;;;;;17.67;6.28;;;;;;;;;;5025842;28;20025;-83
2021/04/03 03:00:00;;;;;;;8.48;5.30;;;;;;;;;;5022869;28;20096;-83
2021/04/03 03:02:48;;;;;;;14.82;5.63;;;;;;;;;;5024542;28;20117;-83
2021/04/03 03:05:34;;;;;;;11.13;5.40;;;;;;;;;;5020013;28;20376;-82
2021/04/03 03:08:20;;;;;;;10.00;5.18;;;;;;;;;;5035899;28;20032;-83
2021/04/03 03:11:06;;;;;;;11.68;4.95;;;;;;;;;;5022898;28;20025;-84
2021/04/03 03:13:52;;;;;;;16.08;5.20;;;;;;;;;;5025790;28;20028;-85
2021/04/03 03:16:38;;;;;;;10.00;5.63;;;;;;;;;;5022328;28;20843;-84
2021/04/03 03:19:24;;;;;;;13.00;4.70;;;;;;;;;;5024062;28;20032;-82
2021/04/03 03:22:09;;;;;;;11.38;4.82;;;;;;;;;;5024223;28;20013;-82
2021/04/03 03:24:55;;;;;;;9.95;4.68;;;;;;;;;;5027932;28;20025;-83
2021/04/03 03:27:41;;;;;;;10.10;4.70;;;;;;;;;;5026460;28;20041;-83
2021/04/03 03:30:27;;;;;;;10.00;5.05;;;;;;;;;;5025126;28;20029;-83
2021/04/03 03:33:12;;;;;;;11.43;4.82;;;;;;;;;;5026300;28;20032;-83
2021/04/03 03:35:58;;;;;;;12.88;5.40;;;;;;;;;;5024338;28;20399;-83
2021/04/03 03:38:43;;;;;;;11.95;4.90;;;;;;;;;;5026503;28;20065;-83
2021/04/03 03:41:29;;;;;;;12.98;5.07;;;;;;;;;;5025904;28;20040;-82
2021/04/03 03:44:15;;;;;;;8.93;4.53;;;;;;;;;;5023334;28;20032;-82
2021/04/03 03:47:00;;;;;;;10.32;4.85;;;;;;;;;;5025465;28;20687;-82
2021/04/03 03:49:45;;;;;;;10.02;4.95;;;;;;;;;;5025799;28;20463;-83
2021/04/03 03:52:31;;;;;;;15.85;5.43;;;;;;;;;;5021055;28;20020;-83
2021/04/03 03:55:16;;;;;;;14.82;5.00;;;;;;;;;;5021140;28;20018;-83
2021/04/03 03:58:02;;;;;;;10.73;5.50;;;;;;;;;;5006518;28;20017;-82
2021/04/03 04:00:47;;;;;;;12.75;5.38;;;;;;;;;;5028338;28;20018;-83
2021/04/03 04:03:33;;;;;;;9.48;5.18;;;;;;;;;;5007540;28;20033;-83
2021/04/03 04:06:18;;;;;;;14.35;5.78;;;;;;;;;;5024519;28;20029;-83
2021/04/03 04:09:04;;;;;;;13.95;5.40;;;;;;;;;;5021612;28;20049;-83
2021/04/03 04:11:49;;;;;;;8.23;4.95;;;;;;;;;;5025999;28;20064;-83
2021/04/03 04:14:35;;;;;;;14.65;5.45;;;;;;;;;;5007095;28;20078;-83
2021/04/03 04:17:20;;;;;;;13.35;6.13;;;;;;;;;;5025655;28;20018;-82
2021/04/03 04:20:06;;;;;;;10.77;5.25;;;;;;;;;;5026863;28;20051;-82
2021/04/03 04:22:51;;;;;;;9.35;5.18;;;;;;;;;;5020698;28;20049;-82
2021/04/03 04:25:36;;;;;;;10.82;4.90;;;;;;;;;;5024550;28;20427;-83
2021/04/03 04:28:22;;;;;;;13.10;4.35;;;;;;;;;;5023870;28;20036;-83
2021/04/03 04:31:07;;;;;;;9.60;4.75;;;;;;;;;;5025971;28;20025;-82
2021/04/03 04:33:52;;;;;;;8.57;4.72;;;;;;;;;;5023868;28;20025;-82
2021/04/03 04:36:37;;;;;;;12.68;4.90;;;;;;;;;;5026594;28;20029;-83
2021/04/03 04:39:23;;;;;;;10.05;4.57;;;;;;;;;;5008168;28;20442;-83
2021/04/03 04:42:08;;;;;;;11.77;5.05;;;;;;;;;;5025496;28;20227;-83
2021/04/03 04:44:53;;;;;;;13.30;4.93;;;;;;;;;;5022755;28;20041;-83
2021/04/03 04:47:39;;;;;;;12.43;5.38;;;;;;;;;;5026006;28;20119;-83
2021/04/03 04:50:24;;;;;;;8.55;4.88;;;;;;;;;;5024351;28;20721;-83
2021/04/03 04:53:09;;;;;;;11.13;5.75;;;;;;;;;;5027013;28;20107;-83
2021/04/03 04:55:54;;;;;;;11.25;5.07;;;;;;;;;;5018495;28;20046;-82
2021/04/03 04:58:39;;;;;;;10.10;5.00;;;;;;;;;;5026570;28;20077;-85
2021/04/03 05:01:25;;;;;;;8.77;4.95;;;;;;;;;;5025005;28;20044;-83
2021/04/03 05:04:10;;;;;;;13.48;5.00;;;;;;;;;;5024808;28;20033;-83
2021/04/03 05:06:55;;;;;;;13.23;5.40;;;;;;;;;;5026101;28;20107;-83
2021/04/03 05:09:40;;;;;;;12.05;5.10;;;;;;;;;;5022357;28;20070;-82
2021/04/03 05:12:26;;;;;;;9.80;4.65;;;;;;;;;;5026703;28;20033;-83
2021/04/03 05:15:11;;;;;;;11.65;4.70;;;;;;;;;;5020376;28;20045;-83
2021/04/03 05:17:56;;;;;;;9.35;5.15;;;;;;;;;;5025635;28;20139;-83
2021/04/03 05:20:41;;;;;;;10.95;5.07;;;;;;;;;;5021850;28;20018;-83
2021/04/03 05:23:27;;;;;;;12.02;4.93;;;;;;;;;;5024953;28;20025;-84
2021/04/03 05:26:12;;;;;;;14.00;5.35;;;;;;;;;;5018502;28;20127;-83
2021/04/03 05:28:57;;;;;;;10.55;4.88;;;;;;;;;;5026848;28;20068;-82
2021/04/03 05:31:42;;;;;;;12.63;5.57;;;;;;;;;;5023195;28;20380;-84
2021/04/03 05:34:28;;;;;;;9.95;5.40;;;;;;;;;;5024961;28;20022;-84
2021/04/03 05:37:13;;;;;;;17.17;5.88;;;;;;;;;;5018607;28;20112;-84
2021/04/03 05:39:58;;;;;;;13.43;5.05;;;;;;;;;;5024261;28;20091;-82
2021/04/03 05:42:46;;;;;;;12.35;4.78;;;;;;;;;;5016488;28;20055;-83
2021/04/03 05:45:35;;;;;;;11.75;4.53;;;;;;;;;;5007444;28;20060;-83
2021/04/03 05:48:21;;;;;;;11.35;4.80;;;;;;;;;;5026311;28;20032;-83
2021/04/03 05:51:07;;;;;;;10.63;4.38;;;;;;;;;;5023095;28;20087;-83
2021/04/03 05:53:52;;;;;;;8.52;3.97;;;;;;;;;;5040112;28;20615;-84
2021/04/03 05:56:38;;;;;;;11.10;4.25;;;;;;;;;;5022793;28;20079;-82
2021/04/03 05:59:23;;;;;;;16.90;4.45;;;;;;;;;;5025431;28;20017;-84
2021/04/03 06:02:09;;;;;;;8.02;4.07;;;;;;;;;;5021449;28;20034;-84
2021/04/03 06:04:54;;;;;;;11.73;4.43;;;;;;;;;;5024679;28;20033;-83
2021/04/03 06:07:40;;;;;;;10.95;4.30;;;;;;;;;;5022035;28;20025;-83
2021/04/03 06:10:25;;;;;;;11.23;4.70;;;;;;;;;;5026250;28;20553;-84
2021/04/03 06:13:17;;;;;;;7.85;4.03;;;;;;;;;;5020635;28;20029;-83
2021/04/03 06:16:23;;;;;;;9.73;4.55;;;;;;;;;;5025024;28;20072;-83
2021/04/03 06:19:09;;;;;;;7.78;4.32;;;;;;;;;;5035004;28;20112;-83
2021/04/03 06:21:56;;;;;;;8.57;4.15;;;;;;;;;;5022024;28;20036;-83
2021/04/03 06:24:41;;;;;;;10.57;4.20;;;;;;;;;;5024029;28;20017;-83
2021/04/03 06:27:29;;;;;;;8.77;3.88;;;;;;;;;;5022670;28;20100;-82
2021/04/03 06:30:28;;;;;;;8.88;3.97;;;;;;;;;;5025933;28;20060;-83
2021/04/03 06:33:17;;;;;;;9.93;4.10;;;;;;;;;;5021272;28;20029;-84
2021/04/03 06:36:07;;;;;;;11.30;4.07;;;;;;;;;;5025028;28;20029;-83
2021/04/03 06:38:58;;;;;;;7.47;3.72;;;;;;;;;;5021266;28;20029;-82
2021/04/03 06:41:43;;;;;;;8.27;4.53;;;;;;;;;;5022241;28;20032;-84
2021/04/03 06:44:28;;;;;;;8.30;3.72;;;;;;;;;;5006068;28;20040;-82
2021/04/03 06:47:14;;;;;;;9.35;3.70;;;;;;;;;;5024668;28;20274;-83
2021/04/03 06:49:59;;;;;;;7.35;3.92;;;;;;;;;;5022232;28;20032;-83
2021/04/03 06:52:44;;;;;;;9.75;3.65;;;;;;;;;;5024121;28;20081;-81
2021/04/03 06:55:30;;;;;;;10.32;4.22;;;;;;;;;;5025661;28;20375;-82
2021/04/03 06:58:15;;;;;;;8.75;4.10;;;;;;;;;;5026579;28;20086;-80
2021/04/03 07:01:01;;;;;;;10.43;3.80;;;;;;;;;;5028776;28;20336;-81
2021/04/03 07:03:52;;;;;;;6.63;3.72;;;;;;;;;;5026724;28;20018;-80
2021/04/03 07:06:37;;;;;;;10.43;4.45;;;;;;;;;;5013208;28;20017;-82
2021/04/03 07:09:23;;;;;;;9.73;4.30;;;;;;;;;;5022351;28;20512;-82
2021/04/03 07:12:11;;;;;;;9.80;3.97;;;;;;;;;;5028287;28;20065;-82
2021/04/03 07:14:57;;;;;;;8.95;4.00;;;;;;;;;;5025190;28;20033;-81
2021/04/03 07:17:43;;;;;;;10.43;3.63;;;;;;;;;;5025240;28;20108;-81
2021/04/03 07:20:30;;;;;;;8.85;3.67;;;;;;;;;;5026621;28;20029;-82
2021/04/03 07:23:16;;;;;;;9.05;4.28;;;;;;;;;;5028877;28;20223;-82
2021/04/03 07:26:02;;;;;;;8.27;4.18;;;;;;;;;;5020218;28;20473;-82
2021/04/03 07:28:47;;;;;;;6.95;3.95;;;;;;;;;;5028770;28;20051;-82
2021/04/03 07:31:40;;;;;;;8.70;3.45;;;;;;;;;;5020898;28;20026;-82
2021/04/03 07:34:52;;;;;;;9.63;4.63;;;;;;;;;;5027752;28;20100;-83
2021/04/03 07:37:37;;;;;;;9.32;3.63;;;;;;;;;;5028505;28;20356;-84
2021/04/03 07:40:22;;;;;;;8.45;3.75;;;;;;;;;;5024769;28;20472;-83
2021/04/03 07:43:27;;;;;;;6.47;4.03;;;;;;;;;;5026628;28;20140;-84
2021/04/03 07:46:23;;;;;;;8.70;4.30;;;;;;;;;;5024151;28;20449;-85
2021/04/03 07:49:09;;;;;;;6.75;3.33;;;;;;;;;;5025429;28;20022;-83
2021/04/03 07:51:54;;;;;;;7.70;3.60;;;;;;;;;;5021713;28;20018;-83
2021/04/03 07:54:39;;;;;;;12.15;3.53;;;;;;;;;;5021583;28;20266;-84
2021/04/03 07:57:33;;;;;;;7.10;3.08;;;;;;;;;;5009169;28;20029;-83
2021/04/03 08:00:22;;;;;;;8.00;3.30;;;;;;;;;;5028364;28;20105;-83
2021/04/03 08:03:07;;;;;;;6.72;3.53;;;;;;;;;;5022217;28;20503;-84
2021/04/03 08:05:59;;;;;;;8.60;3.53;;;;;;;;;;5028110;28;20506;-82
2021/04/03 08:08:44;;;;;;;9.25;3.42;;;;;;;;;;5037663;28;20506;-83
2021/04/03 08:11:29;;;;;;;11.30;3.83;;;;;;;;;;5025842;28;20025;-82
2021/04/03 08:14:15;;;;;;;7.28;3.53;;;;;;;;;;5027650;28;20052;-83
2021/04/03 08:17:01;;;;;;;6.30;3.05;;;;;;;;;;5022014;28;20034;-82
2021/04/03 08:19:47;;;;;;;8.65;3.50;;;;;;;;;;5027588;28;20048;-83
2021/04/03 08:22:32;;;;;;;5.80;2.97;;;;;;;;;;5023295;28;20021;-84
2021/04/03 08:25:17;;;;;;;7.43;3.42;;;;;;;;;;5024298;28;20507;-83
2021/04/03 08:28:21;;;;;;;8.60;3.70;;;;;;;;;;5024547;28;20021;-83
2021/04/03 08:31:13;;;;;;;9.25;3.63;;;;;;;;;;5023021;28;20102;-82
2021/04/03 08:34:00;;;;;;;9.25;2.95;;;;;;;;;;5019543;28;20021;-83
2021/04/03 08:36:45;;;;;;;8.15;2.97;;;;;;;;;;5038556;28;20033;-82
2021/04/03 08:39:30;;;;;;;6.38;2.80;;;;;;;;;;5009375;28;20694;-82
2021/04/03 08:42:15;;;;;;;8.25;3.50;;;;;;;;;;5024527;28;20057;-83
2021/04/03 08:45:02;;;;;;;5.88;3.00;;;;;;;;;;5024701;28;20102;-83
2021/04/03 08:47:51;;;;;;;7.40;3.10;;;;;;;;;;5022115;28;20049;-83
2021/04/03 08:50:37;;;;;;;8.23;3.35;;;;;;;;;;5024742;28;20029;-83
2021/04/03 08:53:22;;;;;;;8.70;3.75;;;;;;;;;;5009034;28;20518;-83
2021/04/03 08:56:08;;;;;;;9.82;3.63;;;;;;;;;;5024008;28;20131;-83
2021/04/03 08:58:54;;;;;;;6.40;3.35;;;;;;;;;;5020904;28;20041;-83
2021/04/03 09:01:41;;;;;;;8.02;3.00;;;;;;;;;;5024356;28;20037;-83
2021/04/03 09:04:28;;;;;;;6.28;3.20;;;;;;;;;;5021494;28;20033;-83
2021/04/03 09:07:30;;;;;;;9.80;3.97;;;;;;;;;;5023000;28;20052;-83
2021/04/03 09:10:16;;;;;;;6.47;3.10;;;;;;;;;;5023011;28;20479;-83
2021/04/03 09:13:11;;;;;;;6.18;3.00;;;;;;;;;;5026662;28;20021;-83
2021/04/03 09:16:13;;;;;;;5.50;3.13;;;;;;;;;;5023471;28;20037;-82
2021/04/03 09:18:59;;;;;;;7.43;2.80;;;;;;;;;;5021683;28;20395;-82
2021/04/03 09:21:45;;;;;;;9.90;3.67;;;;;;;;;;5026103;28;20087;-84
2021/04/03 09:24:36;;;;;;;12.45;3.75;;;;;;;;;;5010453;28;20037;-83
2021/04/03 09:27:22;;;;;;;9.50;3.55;;;;;;;;;;5026474;28;20403;-83
2021/04/03 09:30:12;;;;;;;5.50;2.97;;;;;;;;;;5022685;28;20498;-84
2021/04/03 09:32:57;;;;;;;7.85;3.50;;;;;;;;;;5025202;28;20035;-82
2021/04/03 09:35:42;;;;;;;6.65;3.53;;;;;;;;;;5022224;28;20032;-82
2021/04/03 09:38:33;;;;;;;5.20;3.15;;;;;;;;;;5024573;28;20031;-81
2021/04/03 09:41:25;;;;;;;5.43;2.72;;;;;;;;;;5022654;28;20025;-82
2021/04/03 09:44:10;;;;;;;5.88;3.03;;;;;;;;;;5023471;28;20028;-83
2021/04/03 09:46:55;;;;;;;7.47;3.30;;;;;;;;;;5030101;28;20095;-83
2021/04/03 09:49:41;;;;;;;7.78;3.20;;;;;;;;;;5025832;28;20021;-83
2021/04/03 09:52:26;;;;;;;5.88;3.28;;;;;;;;;;5020513;28;20061;-82
2021/04/03 09:55:11;;;;;;;4.95;3.60;;;;;;;;;;5026221;28;20029;-83
2021/04/03 09:57:57;;;;;;;5.90;3.28;;;;;;;;;;5012052;28;20036;-83
2021/04/03 10:00:42;;;;;;;5.32;3.00;;;;;;;;;;5020913;28;20421;-82
2021/04/03 10:03:27;;;;;;;8.02;3.22;;;;;;;;;;5025409;28;20104;-83
2021/04/03 10:06:13;;;;;;;5.45;3.22;;;;;;;;;;5023187;28;20191;-82
2021/04/03 10:08:58;;;;;;;6.20;3.25;;;;;;;;;;5024662;28;20025;-81
2021/04/03 10:11:43;;;;;;;7.65;3.95;;;;;;;;;;5021320;28;20031;-82
2021/04/03 10:14:28;;;;;;;7.38;3.20;;;;;;;;;;5023169;28;20060;-83
2021/04/03 10:17:14;;;;;;;6.80;3.80;;;;;;;;;;5022968;28;20038;-82
2021/04/03 10:19:59;;;;;;;7.85;3.90;;;;;;;;;;5025619;28;20032;-82
2021/04/03 10:22:45;;;;;;;7.60;3.75;;;;;;;;;;5023124;28;20022;-82
2021/04/03 10:25:30;;;;;;;6.47;3.63;;;;;;;;;;5008322;28;20021;-82
2021/04/03 10:28:16;;;;;;;9.18;3.25;;;;;;;;;;5016187;28;20029;-82
2021/04/03 10:31:01;;;;;;;8.43;3.03;;;;;;;;;;5024313;28;20379;-82
2021/04/03 10:33:46;;;;;;;7.38;3.10;;;;;;;;;;5018730;28;20369;-82
2021/04/03 10:36:31;;;;;;;6.30;3.63;;;;;;;;;;5026318;28;20032;-82
2021/04/03 10:39:17;;;;;;;4.75;2.65;;;;;;;;;;5021448;28;20025;-83
2021/04/03 10:42:02;;;;;;;5.82;2.92;;;;;;;;;;5021397;28;20380;-82
2021/04/03 10:44:47;;;;;;;5.63;2.90;;;;;;;;;;5010204;28;20056;-83
2021/04/03 10:47:33;;;;;;;7.82;3.10;;;;;;;;;;5022694;28;20095;-82
2021/04/03 10:50:18;;;;;;;5.85;2.95;;;;;;;;;;5018324;28;20032;-82
2021/04/03 10:53:04;;;;;;;8.63;3.00;;;;;;;;;;5022410;28;20583;-82
2021/04/03 10:55:49;;;;;;;7.70;3.17;;;;;;;;;;5024137;28;20045;-83
2021/04/03 10:58:37;;;;;;;6.53;2.97;;;;;;;;;;5020628;28;20030;-83
2021/04/03 11:01:22;;;;;;;6.75;3.13;;;;;;;;;;5023874;28;20105;-84
2021/04/03 11:04:07;;;;;;;7.05;2.80;;;;;;;;;;5022940;28;20056;-82
2021/04/03 11:06:54;;;;;;;7.75;3.85;;;;;;;;;;5024769;28;20029;-82
2021/04/03 11:09:39;;;;;;;6.82;3.13;;;;;;;;;;5022565;28;20026;-82
2021/04/03 11:12:24;;;;;;;6.32;3.47;;;;;;;;;;5022245;28;20025;-83
2021/04/03 11:15:11;;;;;;;8.57;3.20;;;;;;;;;;5022398;28;20084;-83
2021/04/03 11:17:56;;;;;;;5.75;3.42;;;;;;;;;;5023705;28;20022;-82
2021/04/03 11:20:41;;;;;;;7.82;3.17;;;;;;;;;;5022549;28;20120;-82
2021/04/03 11:23:27;;;;;;;6.22;2.80;;;;;;;;;;5023473;28;20083;-83
2021/04/03 11:26:12;;;;;;;10.18;3.58;;;;;;;;;;5020057;28;20032;-82
2021/04/03 11:28:57;;;;;;;10.82;3.40;;;;;;;;;;5025187;28;20021;-82
2021/04/03 11:31:42;;;;;;;5.72;2.58;;;;;;;;;;5025785;28;20033;-83
2021/04/03 11:34:31;;;;;;;6.88;2.90;;;;;;;;;;5023215;28;20100;-82
2021/04/03 11:37:16;;;;;;;5.90;2.80;;;;;;;;;;5024835;28;20041;-82
2021/04/03 11:40:02;;;;;;;6.53;2.85;;;;;;;;;;5017504;28;20018;-83
2021/04/03 11:42:52;;;;;;;8.13;3.83;;;;;;;;;;5024428;28;20098;-82
2021/04/03 11:45:38;;;;;;;8.40;2.95;;;;;;;;;;5021282;28;20037;-82
2021/04/03 11:48:23;;;;;;;6.15;3.00;;;;;;;;;;5027336;28;20029;-82
2021/04/03 11:51:08;;;;;;;5.82;3.25;;;;;;;;;;5019991;28;20097;-83
2021/04/03 11:53:54;;;;;;;5.90;3.10;;;;;;;;;;5028856;28;20034;-83
2021/04/03 11:56:39;;;;;;;9.10;3.40;;;;;;;;;;5022723;28;20033;-83
2021/04/03 11:59:24;;;;;;;5.97;2.92;;;;;;;;;;5020928;28;20503;-82
2021/04/03 12:02:09;;;;;;;7.70;3.10;;;;;;;;;;5024845;28;20067;-82
2021/04/03 12:04:57;;;;;;;9.73;2.80;;;;;;;;;;5028505;28;20061;-82
2021/04/03 12:07:42;;;;;;;5.78;2.83;;;;;;;;;;5020428;28;20055;-80
2021/04/03 12:10:27;;;;;;;8.00;3.47;;;;;;;;;;5025851;28;20043;-82
2021/04/03 12:13:13;;;;;;;7.25;3.35;;;;;;;;;;5030805;28;20036;-85
2021/04/03 12:15:58;;;;;;;10.45;2.90;;;;;;;;;;5025704;28;20087;-82
2021/04/03 12:18:43;;;;;;;9.25;3.15;;;;;;;;;;5028260;28;20025;-82
2021/04/03 12:21:29;;;;;;;8.20;3.08;;;;;;;;;;5025293;28;20021;-83
2021/04/03 12:24:14;;;;;;;5.88;2.60;;;;;;;;;;5025690;28;20052;-83
2021/04/03 12:27:00;;;;;;;6.80;2.70;;;;;;;;;;5026875;28;20034;-82
2021/04/03 12:29:45;;;;;;;7.07;2.67;;;;;;;;;;5027662;28;20484;-84
2021/04/03 12:32:31;;;;;;;4.68;2.38;;;;;;;;;;5025293;28;20041;-84
2021/04/03 12:35:16;;;;;;;4.88;2.47;;;;;;;;;;5029250;28;20029;-83
2021/04/03 12:38:02;;;;;;;6.90;3.10;;;;;;;;;;5022401;28;20376;-84
2021/04/03 12:40:47;;;;;;;7.05;2.72;;;;;;;;;;5026392;28;20101;-83
2021/04/03 12:43:32;;;;;;;7.03;2.80;;;;;;;;;;5025154;28;20422;-82
2021/04/03 12:46:17;;;;;;;5.95;2.45;;;;;;;;;;5028403;28;20100;-81
2021/04/03 12:49:03;;;;;;;7.47;2.90;;;;;;;;;;5023841;28;20078;-83
2021/04/03 12:51:48;;;;;;;6.68;2.47;;;;;;;;;;5028201;28;20067;-82
2021/04/03 12:54:33;;;;;;;5.05;2.65;;;;;;;;;;5023615;28;20033;-83
2021/04/03 12:57:18;;;;;;;6.35;2.97;;;;;;;;;;5028217;28;20021;-83
2021/04/03 13:00:04;;;;;;;6.10;3.42;;;;;;;;;;5028227;28;20025;-83
2021/04/03 13:02:50;;;;;;;4.45;2.60;;;;;;;;;;5022880;28;20025;-82
2021/04/03 13:05:35;;;;;;;7.57;2.65;;;;;;;;;;5024488;28;20084;-83
2021/04/03 13:08:20;;;;;;;5.00;2.67;;;;;;;;;;5022728;28;20560;-83
2021/04/03 13:11:05;;;;;;;5.03;2.25;;;;;;;;;;5023548;28;20095;-83
2021/04/03 13:13:51;;;;;;;11.05;6.30;;;;;;;;;;5024587;28;20025;-82
2021/04/03 13:16:36;;;;;;;6.40;2.72;;;;;;;;;;5025982;28;20136;-83
2021/04/03 13:19:21;;;;;;;5.60;2.72;;;;;;;;;;5024315;28;20021;-85
2021/04/03 13:22:06;;;;;;;6.28;2.70;;;;;;;;;;5028819;28;20013;-83
2021/04/03 13:24:52;;;;;;;6.72;3.22;;;;;;;;;;5020530;28;20032;-84
2021/04/03 13:27:37;;;;;;;5.30;2.30;;;;;;;;;;5025642;28;20119;-83
2021/04/03 13:30:22;;;;;;;5.50;2.70;;;;;;;;;;5023995;28;20399;-82
2021/04/03 13:33:08;;;;;;;4.25;2.22;;;;;;;;;;5026891;28;20014;-83
2021/04/03 13:35:53;;;;;;;5.25;2.30;;;;;;;;;;5022932;28;20017;-83
2021/04/03 13:38:39;;;;;;;6.50;2.53;;;;;;;;;;5011602;28;20037;-82
2021/04/03 13:41:25;;;;;;;7.15;2.25;;;;;;;;;;5028047;28;20464;-84
2021/04/03 13:44:10;;;;;;;6.03;2.75;;;;;;;;;;5026581;28;20013;-84
2021/04/03 13:46:55;;;;;;;4.15;2.38;;;;;;;;;;5025354;28;20029;-84
2021/04/03 13:49:40;;;;;;;4.70;2.63;;;;;;;;;;5022877;28;20029;-84
2021/04/03 13:52:26;;;;;;;5.03;2.75;;;;;;;;;;5023571;28;20028;-84
2021/04/03 13:55:11;;;;;;;3.92;2.25;;;;;;;;;;5023594;28;20029;-84
2021/04/03 13:57:56;;;;;;;4.90;2.33;;;;;;;;;;5025387;28;20033;-85
2021/04/03 14:00:42;;;;;;;7.47;2.92;;;;;;;;;;5023627;28;20021;-84
2021/04/03 14:03:27;;;;;;;5.50;2.47;;;;;;;;;;5025763;28;20014;-84
2021/04/03 14:06:12;;;;;;;7.65;2.50;;;;;;;;;;5022262;28;20017;-84
2021/04/03 14:08:57;;;;;;;7.55;2.50;;;;;;;;;;5026067;28;20116;-84
2021/04/03 14:11:43;;;;;;;8.93;2.05;;;;;;;;;;5021573;28;20571;-84
2021/04/03 14:14:28;;;;;;;5.95;2.67;;;;;;;;;;5024598;28;20656;-84
2021/04/03 14:17:13;;;;;;;5.40;2.20;;;;;;;;;;5022265;28;20040;-84
2021/04/03 14:19:58;;;;;;;4.00;2.15;;;;;;;;;;5023030;28;20025;-84
2021/04/03 14:22:44;;;;;;;5.10;2.88;;;;;;;;;;5022794;28;20032;-83
2021/04/03 14:25:29;;;;;;;5.80;2.22;;;;;;;;;;5025984;28;20100;-82
2021/04/03 14:28:14;;;;;;;5.63;2.13;;;;;;;;;;5022151;28;20100;-83
2021/04/03 14:30:59;;;;;;;4.60;2.17;;;;;;;;;;5023356;28;20476;-82
2021/04/03 14:33:45;;;;;;;6.88;2.28;;;;;;;;;;5025576;28;20033;-83
2021/04/03 14:36:30;;;;;;;6.85;2.78;;;;;;;;;;5020952;28;20111;-83
2021/04/03 14:39:15;;;;;;;5.28;2.30;;;;;;;;;;5026218;28;20087;-83
2021/04/03 14:42:01;;;;;;;4.22;2.30;;;;;;;;;;5023211;28;20021;-83
2021/04/03 14:44:46;;;;;;;5.05;2.00;;;;;;;;;;5023934;28;20025;-83
2021/04/03 14:47:31;;;;;;;3.45;2.00;;;;;;;;;;5023176;28;20119;-82
2021/04/03 14:50:16;;;;;;;4.28;2.25;;;;;;;;;;5023337;28;20051;-82
2021/04/03 14:53:01;;;;;;;5.72;2.25;;;;;;;;;;5020847;28;20017;-83
2021/04/03 14:55:47;;;;;;;5.10;2.92;;;;;;;;;;5020716;28;20066;-82
2021/04/03 14:58:32;;;;;;;5.75;2.20;;;;;;;;;;5021118;28;20032;-82
2021/04/03 15:01:17;;;;;;;4.88;2.30;;;;;;;;;;5021417;28;20021;-82
2021/04/03 15:04:03;;;;;;;9.10;2.40;;;;;;;;;;5020661;28;20044;-81
2021/04/03 15:06:48;;;;;;;6.75;2.10;;;;;;;;;;5023635;28;20025;-82
2021/04/03 15:09:33;;;;;;;3.42;1.85;;;;;;;;;;5021903;28;20025;-83
2021/04/03 15:12:18;;;;;;;3.67;2.17;;;;;;;;;;5025088;28;20430;-82
2021/04/03 15:15:04;;;;;;;7.80;3.17;;;;;;;;;;5020611;28;20119;-83
2021/04/03 15:17:49;;;;;;;5.35;2.25;;;;;;;;;;5024560;28;20034;-83
2021/04/03 15:20:34;;;;;;;7.10;2.15;;;;;;;;;;5028605;28;20476;-83
2021/04/03 15:23:20;;;;;;;5.80;2.35;;;;;;;;;;5026323;28;20345;-83
2021/04/03 15:26:05;;;;;;;7.25;2.55;;;;;;;;;;5028926;28;20806;-82
2021/04/03 15:28:50;;;;;;;4.93;2.17;;;;;;;;;;5020582;28;20025;-83
2021/04/03 15:31:35;;;;;;;7.95;2.30;;;;;;;;;;5024504;28;20028;-83
2021/04/03 15:34:21;;;;;;;5.70;2.67;;;;;;;;;;5027616;28;20033;-83
2021/04/03 15:37:06;;;;;;;5.63;1.92;;;;;;;;;;5030514;28;20124;-82
2021/04/03 15:39:53;;;;;;;4.40;2.05;;;;;;;;;;5024514;28;20360;-82
2021/04/03 15:42:38;;;;;;;7.85;2.63;;;;;;;;;;5028155;28;20045;-82
2021/04/03 15:45:23;;;;;;;6.82;2.22;;;;;;;;;;5026941;28;20017;-82
2021/04/03 15:48:09;;;;;;;4.40;1.90;;;;;;;;;;5028728;28;20048;-83
2021/04/03 15:50:54;;;;;;;3.83;1.83;;;;;;;;;;5026330;28;20484;-83
2021/04/03 15:53:39;;;;;;;4.20;2.10;;;;;;;;;;5028835;28;20025;-83
2021/04/03 15:56:25;;;;;;;4.93;2.08;;;;;;;;;;5024612;28;20041;-83
2021/04/03 15:59:10;;;;;;;4.80;2.25;;;;;;;;;;5041555;28;20037;-83
2021/04/03 16:01:55;;;;;;;6.43;2.40;;;;;;;;;;5025324;28;20082;-83
2021/04/03 16:04:40;;;;;;;5.15;2.42;;;;;;;;;;5023536;28;20029;-83
2021/04/03 16:07:26;;;;;;;7.10;3.28;;;;;;;;;;5028511;28;20049;-84
2021/04/03 16:10:12;;;;;;;5.05;2.30;;;;;;;;;;5018383;28;20057;-83
2021/04/03 16:12:57;;;;;;;5.72;2.35;;;;;;;;;;5028712;28;20373;-84
2021/04/03 16:15:42;;;;;;;7.82;2.88;;;;;;;;;;5025443;28;20042;-82
2021/04/03 16:18:27;;;;;;;5.50;2.42;;;;;;;;;;5023634;28;20476;-83
2021/04/03 16:21:13;;;;;;;5.22;2.38;;;;;;;;;;5024084;28;20021;-83
2021/04/03 16:23:58;;;;;;;4.72;2.40;;;;;;;;;;5027184;28;20041;-83
2021/04/03 16:26:43;;;;;;;7.38;2.70;;;;;;;;;;5024856;28;20053;-83
2021/04/03 16:29:28;;;;;;;4.95;2.20;;;;;;;;;;5023160;28;20091;-83
2021/04/03 16:32:13;;;;;;;10.77;3.42;;;;;;;;;;5025463;28;20044;-83